sensor_id;sensor_type;location;lat;lon;timestamp;P1;durP1;ratioP1;P2;durP2;ratioP2
846;SDS011;410;48.954;9.474;2024-02-04T00:01:43;2.27;;;1.00;;
846;SDS011;410;48.954;9.474;2024-02-04T00:03:48;1.20;;;0.60;;
846;SDS011;410;48.954;9.474;2024-02-04T00:06:10;1.40;;;0.70;;
846;SDS011;410;48.954;9.474;2024-02-04T00:08:15;1.60;;;0.77;;
846;SDS011;410;48.954;9.474;2024-02-04T00:10:19;1.27;;;0.57;;
846;SDS011;410;48.954;9.474;2024-02-04T00:12:22;2.53;;;0.73;;
846;SDS011;410;48.954;9.474;2024-02-04T00:14:25;1.17;;;0.50;;
846;SDS011;410;48.954;9.474;2024-02-04T00:16:28;2.10;;;1.20;;
846;SDS011;410;48.954;9.474;2024-02-04T00:18:32;2.40;;;1.37;;
846;SDS011;410;48.954;9.474;2024-02-04T00:20:37;1.57;;;0.70;;
846;SDS011;410;48.954;9.474;2024-02-04T00:22:40;1.40;;;0.70;;
846;SDS011;410;48.954;9.474;2024-02-04T00:24:43;1.10;;;0.50;;
846;SDS011;410;48.954;9.474;2024-02-04T00:26:46;2.60;;;0.70;;
846;SDS011;410;48.954;9.474;2024-02-04T00:28:49;1.33;;;0.68;;
846;SDS011;410;48.954;9.474;2024-02-04T00:30:52;1.33;;;0.47;;
846;SDS011;410;48.954;9.474;2024-02-04T00:32:57;1.73;;;0.60;;
846;SDS011;410;48.954;9.474;2024-02-04T00:35:05;1.40;;;0.60;;
846;SDS011;410;48.954;9.474;2024-02-04T00:37:10;1.33;;;0.60;;
846;SDS011;410;48.954;9.474;2024-02-04T00:39:13;1.73;;;0.70;;
846;SDS011;410;48.954;9.474;2024-02-04T00:41:16;1.20;;;0.60;;
846;SDS011;410;48.954;9.474;2024-02-04T00:43:19;1.60;;;0.60;;
846;SDS011;410;48.954;9.474;2024-02-04T00:45:23;1.13;;;0.40;;
846;SDS011;410;48.954;9.474;2024-02-04T00:47:25;3.47;;;0.70;;
846;SDS011;410;48.954;9.474;2024-02-04T00:49:28;1.67;;;0.73;;
846;SDS011;410;48.954;9.474;2024-02-04T00:51:32;1.30;;;0.57;;
846;SDS011;410;48.954;9.474;2024-02-04T00:53:37;2.07;;;0.60;;
846;SDS011;410;48.954;9.474;2024-02-04T00:55:40;1.20;;;0.50;;
846;SDS011;410;48.954;9.474;2024-02-04T00:57:43;2.17;;;0.70;;
846;SDS011;410;48.954;9.474;2024-02-04T00:59:47;1.40;;;0.63;;
846;SDS011;410;48.954;9.474;2024-02-04T01:01:51;1.20;;;0.50;;
846;SDS011;410;48.954;9.474;2024-02-04T01:03:55;1.27;;;0.50;;
846;SDS011;410;48.954;9.474;2024-02-04T01:05:58;1.20;;;0.50;;
846;SDS011;410;48.954;9.474;2024-02-04T01:08:01;1.30;;;0.60;;
846;SDS011;410;48.954;9.474;2024-02-04T01:10:06;1.20;;;0.53;;
846;SDS011;410;48.954;9.474;2024-02-04T01:12:11;1.60;;;0.50;;
846;SDS011;410;48.954;9.474;2024-02-04T01:14:14;1.20;;;0.40;;
846;SDS011;410;48.954;9.474;2024-02-04T01:16:17;2.40;;;0.60;;
846;SDS011;410;48.954;9.474;2024-02-04T01:18:19;1.27;;;0.50;;
846;SDS011;410;48.954;9.474;2024-02-04T01:20:23;2.07;;;0.60;;
846;SDS011;410;48.954;9.474;2024-02-04T01:22:26;1.10;;;0.50;;
846;SDS011;410;48.954;9.474;2024-02-04T01:24:29;1.40;;;0.70;;
846;SDS011;410;48.954;9.474;2024-02-04T01:26:34;1.87;;;0.50;;
846;SDS011;410;48.954;9.474;2024-02-04T01:28:38;1.30;;;0.57;;
846;SDS011;410;48.954;9.474;2024-02-04T01:30:41;1.10;;;0.43;;
846;SDS011;410;48.954;9.474;2024-02-04T01:32:44;1.10;;;0.50;;
846;SDS011;410;48.954;9.474;2024-02-04T01:34:47;1.20;;;0.40;;
846;SDS011;410;48.954;9.474;2024-02-04T01:36:50;1.10;;;0.43;;
846;SDS011;410;48.954;9.474;2024-02-04T01:38:55;1.20;;;0.43;;
846;SDS011;410;48.954;9.474;2024-02-04T01:40:58;1.30;;;0.60;;
846;SDS011;410;48.954;9.474;2024-02-04T01:43:03;1.40;;;0.33;;
846;SDS011;410;48.954;9.474;2024-02-04T01:45:08;1.30;;;0.50;;
846;SDS011;410;48.954;9.474;2024-02-04T01:47:11;2.77;;;0.70;;
846;SDS011;410;48.954;9.474;2024-02-04T01:49:14;1.30;;;0.60;;
846;SDS011;410;48.954;9.474;2024-02-04T01:51:18;1.20;;;0.50;;
846;SDS011;410;48.954;9.474;2024-02-04T01:53:23;2.23;;;0.70;;
846;SDS011;410;48.954;9.474;2024-02-04T01:55:26;1.60;;;0.57;;
846;SDS011;410;48.954;9.474;2024-02-04T01:57:30;1.50;;;0.60;;
846;SDS011;410;48.954;9.474;2024-02-04T01:59:34;1.40;;;0.60;;
846;SDS011;410;48.954;9.474;2024-02-04T02:01:38;1.20;;;0.50;;
846;SDS011;410;48.954;9.474;2024-02-04T02:03:42;1.23;;;0.60;;
846;SDS011;410;48.954;9.474;2024-02-04T02:05:45;1.20;;;0.40;;
846;SDS011;410;48.954;9.474;2024-02-04T02:07:49;1.40;;;0.57;;
846;SDS011;410;48.954;9.474;2024-02-04T02:09:53;1.87;;;0.53;;
846;SDS011;410;48.954;9.474;2024-02-04T02:11:58;1.27;;;0.57;;
846;SDS011;410;48.954;9.474;2024-02-04T02:14:10;1.50;;;0.60;;
846;SDS011;410;48.954;9.474;2024-02-04T02:16:21;1.10;;;0.40;;
846;SDS011;410;48.954;9.474;2024-02-04T02:18:27;1.50;;;0.43;;
846;SDS011;410;48.954;9.474;2024-02-04T02:20:36;1.77;;;0.50;;
846;SDS011;410;48.954;9.474;2024-02-04T02:22:45;1.87;;;0.60;;
846;SDS011;410;48.954;9.474;2024-02-04T02:24:54;1.10;;;0.43;;
846;SDS011;410;48.954;9.474;2024-02-04T02:27:00;2.10;;;0.50;;
846;SDS011;410;48.954;9.474;2024-02-04T02:29:04;1.40;;;0.47;;
846;SDS011;410;48.954;9.474;2024-02-04T02:31:10;1.70;;;0.50;;
846;SDS011;410;48.954;9.474;2024-02-04T02:33:14;1.20;;;0.40;;
846;SDS011;410;48.954;9.474;2024-02-04T02:35:18;1.20;;;0.50;;
846;SDS011;410;48.954;9.474;2024-02-04T02:37:26;1.20;;;0.57;;
846;SDS011;410;48.954;9.474;2024-02-04T02:39:32;1.13;;;0.40;;
846;SDS011;410;48.954;9.474;2024-02-04T02:41:40;1.13;;;0.40;;
846;SDS011;410;48.954;9.474;2024-02-04T02:43:45;1.70;;;0.73;;
846;SDS011;410;48.954;9.474;2024-02-04T02:45:50;1.10;;;0.40;;
846;SDS011;410;48.954;9.474;2024-02-04T02:47:54;1.20;;;0.47;;
846;SDS011;410;48.954;9.474;2024-02-04T02:49:59;1.80;;;0.43;;
846;SDS011;410;48.954;9.474;2024-02-04T02:52:04;1.10;;;0.40;;
846;SDS011;410;48.954;9.474;2024-02-04T02:54:07;1.10;;;0.40;;
846;SDS011;410;48.954;9.474;2024-02-04T02:56:11;1.10;;;0.40;;
846;SDS011;410;48.954;9.474;2024-02-04T02:58:16;1.10;;;0.40;;
846;SDS011;410;48.954;9.474;2024-02-04T03:00:20;1.17;;;0.40;;
846;SDS011;410;48.954;9.474;2024-02-04T03:02:24;1.17;;;0.40;;
846;SDS011;410;48.954;9.474;2024-02-04T03:04:27;2.03;;;0.40;;
846;SDS011;410;48.954;9.474;2024-02-04T03:06:30;1.20;;;0.40;;
846;SDS011;410;48.954;9.474;2024-02-04T03:08:34;1.27;;;0.40;;
846;SDS011;410;48.954;9.474;2024-02-04T03:10:37;1.30;;;0.40;;
846;SDS011;410;48.954;9.474;2024-02-04T03:12:41;1.00;;;0.30;;
846;SDS011;410;48.954;9.474;2024-02-04T03:14:45;1.23;;;0.40;;
846;SDS011;410;48.954;9.474;2024-02-04T03:16:48;1.10;;;0.40;;
846;SDS011;410;48.954;9.474;2024-02-04T03:18:55;1.27;;;0.40;;
846;SDS011;410;48.954;9.474;2024-02-04T03:20:59;1.10;;;0.43;;
846;SDS011;410;48.954;9.474;2024-02-04T03:23:03;1.10;;;0.40;;
846;SDS011;410;48.954;9.474;2024-02-04T03:25:07;1.77;;;0.40;;
846;SDS011;410;48.954;9.474;2024-02-04T03:27:11;1.20;;;0.50;;
846;SDS011;410;48.954;9.474;2024-02-04T03:29:15;1.10;;;0.40;;
846;SDS011;410;48.954;9.474;2024-02-04T03:31:20;1.03;;;0.33;;
846;SDS011;410;48.954;9.474;2024-02-04T03:33:25;1.30;;;0.47;;
846;SDS011;410;48.954;9.474;2024-02-04T03:35:29;1.53;;;0.50;;
846;SDS011;410;48.954;9.474;2024-02-04T03:37:32;1.10;;;0.40;;
846;SDS011;410;48.954;9.474;2024-02-04T03:39:37;1.47;;;0.50;;
846;SDS011;410;48.954;9.474;2024-02-04T03:41:40;1.00;;;0.30;;
846;SDS011;410;48.954;9.474;2024-02-04T03:43:44;1.10;;;0.40;;
846;SDS011;410;48.954;9.474;2024-02-04T03:45:51;1.30;;;0.50;;
846;SDS011;410;48.954;9.474;2024-02-04T03:47:56;1.10;;;0.40;;
846;SDS011;410;48.954;9.474;2024-02-04T03:50:06;1.40;;;0.40;;
846;SDS011;410;48.954;9.474;2024-02-04T03:52:11;1.10;;;0.40;;
846;SDS011;410;48.954;9.474;2024-02-04T03:54:13;1.40;;;0.40;;
846;SDS011;410;48.954;9.474;2024-02-04T03:56:17;1.23;;;0.40;;
846;SDS011;410;48.954;9.474;2024-02-04T03:58:20;1.10;;;0.50;;
846;SDS011;410;48.954;9.474;2024-02-04T04:00:31;1.57;;;0.60;;
846;SDS011;410;48.954;9.474;2024-02-04T04:02:35;1.33;;;0.50;;
846;SDS011;410;48.954;9.474;2024-02-04T04:04:40;1.40;;;0.33;;
846;SDS011;410;48.954;9.474;2024-02-04T04:06:46;1.50;;;0.30;;
846;SDS011;410;48.954;9.474;2024-02-04T04:08:51;1.00;;;0.37;;
846;SDS011;410;48.954;9.474;2024-02-04T04:10:55;1.00;;;0.40;;
846;SDS011;410;48.954;9.474;2024-02-04T04:12:57;1.23;;;0.50;;
846;SDS011;410;48.954;9.474;2024-02-04T04:15:01;1.10;;;0.40;;
846;SDS011;410;48.954;9.474;2024-02-04T04:17:05;1.00;;;0.40;;
846;SDS011;410;48.954;9.474;2024-02-04T04:19:09;1.30;;;0.40;;
846;SDS011;410;48.954;9.474;2024-02-04T04:21:17;1.20;;;0.50;;
846;SDS011;410;48.954;9.474;2024-02-04T04:23:19;1.13;;;0.40;;
846;SDS011;410;48.954;9.474;2024-02-04T04:25:23;1.17;;;0.40;;
846;SDS011;410;48.954;9.474;2024-02-04T04:27:26;1.40;;;0.60;;
846;SDS011;410;48.954;9.474;2024-02-04T04:29:30;1.50;;;0.70;;
846;SDS011;410;48.954;9.474;2024-02-04T04:31:33;1.60;;;0.70;;
846;SDS011;410;48.954;9.474;2024-02-04T04:33:37;1.50;;;0.50;;
846;SDS011;410;48.954;9.474;2024-02-04T04:35:40;1.47;;;0.70;;
846;SDS011;410;48.954;9.474;2024-02-04T04:37:46;3.40;;;0.90;;
846;SDS011;410;48.954;9.474;2024-02-04T04:39:50;1.63;;;0.60;;
846;SDS011;410;48.954;9.474;2024-02-04T04:41:53;1.30;;;0.63;;
846;SDS011;410;48.954;9.474;2024-02-04T04:43:57;1.23;;;0.60;;
846;SDS011;410;48.954;9.474;2024-02-04T04:46:01;1.60;;;0.90;;
846;SDS011;410;48.954;9.474;2024-02-04T04:48:03;1.80;;;0.87;;
846;SDS011;410;48.954;9.474;2024-02-04T04:50:09;1.50;;;0.70;;
846;SDS011;410;48.954;9.474;2024-02-04T04:52:12;1.40;;;0.80;;
846;SDS011;410;48.954;9.474;2024-02-04T04:54:18;1.33;;;0.70;;
846;SDS011;410;48.954;9.474;2024-02-04T04:56:21;1.60;;;0.83;;
846;SDS011;410;48.954;9.474;2024-02-04T04:58:24;1.47;;;0.80;;
846;SDS011;410;48.954;9.474;2024-02-04T05:00:28;1.60;;;0.87;;
846;SDS011;410;48.954;9.474;2024-02-04T05:02:31;1.33;;;0.77;;
846;SDS011;410;48.954;9.474;2024-02-04T05:04:33;1.40;;;0.80;;
846;SDS011;410;48.954;9.474;2024-02-04T05:06:37;1.63;;;0.93;;
846;SDS011;410;48.954;9.474;2024-02-04T05:08:40;1.30;;;0.60;;
846;SDS011;410;48.954;9.474;2024-02-04T05:10:45;1.50;;;0.90;;
846;SDS011;410;48.954;9.474;2024-02-04T05:12:48;1.40;;;0.80;;
846;SDS011;410;48.954;9.474;2024-02-04T05:14:52;1.73;;;0.87;;
846;SDS011;410;48.954;9.474;2024-02-04T05:16:55;2.00;;;1.50;;
846;SDS011;410;48.954;9.474;2024-02-04T05:18:58;1.60;;;0.80;;
846;SDS011;410;48.954;9.474;2024-02-04T05:21:02;1.20;;;0.60;;
846;SDS011;410;48.954;9.474;2024-02-04T05:23:06;2.50;;;0.90;;
846;SDS011;410;48.954;9.474;2024-02-04T05:25:09;1.43;;;0.80;;
846;SDS011;410;48.954;9.474;2024-02-04T05:27:14;1.33;;;0.70;;
846;SDS011;410;48.954;9.474;2024-02-04T05:29:17;2.03;;;0.70;;
846;SDS011;410;48.954;9.474;2024-02-04T05:31:21;1.40;;;0.80;;
846;SDS011;410;48.954;9.474;2024-02-04T05:33:24;1.37;;;0.73;;
846;SDS011;410;48.954;9.474;2024-02-04T05:35:27;1.10;;;0.50;;
846;SDS011;410;48.954;9.474;2024-02-04T05:37:31;1.63;;;0.80;;
846;SDS011;410;48.954;9.474;2024-02-04T05:39:34;1.43;;;0.80;;
846;SDS011;410;48.954;9.474;2024-02-04T05:41:38;1.17;;;0.60;;
846;SDS011;410;48.954;9.474;2024-02-04T05:43:43;1.30;;;0.70;;
846;SDS011;410;48.954;9.474;2024-02-04T05:45:49;1.50;;;0.70;;
846;SDS011;410;48.954;9.474;2024-02-04T05:47:53;2.33;;;1.07;;
846;SDS011;410;48.954;9.474;2024-02-04T05:49:56;2.23;;;1.10;;
846;SDS011;410;48.954;9.474;2024-02-04T05:51:59;1.50;;;0.90;;
846;SDS011;410;48.954;9.474;2024-02-04T05:54:03;2.43;;;1.10;;
846;SDS011;410;48.954;9.474;2024-02-04T05:56:06;1.60;;;0.80;;
846;SDS011;410;48.954;9.474;2024-02-04T05:58:09;2.10;;;1.10;;
846;SDS011;410;48.954;9.474;2024-02-04T06:00:14;2.20;;;1.37;;
846;SDS011;410;48.954;9.474;2024-02-04T06:02:18;3.40;;;1.80;;
846;SDS011;410;48.954;9.474;2024-02-04T06:04:22;2.13;;;1.10;;
846;SDS011;410;48.954;9.474;2024-02-04T06:06:25;2.20;;;1.17;;
846;SDS011;410;48.954;9.474;2024-02-04T06:08:29;2.67;;;1.40;;
846;SDS011;410;48.954;9.474;2024-02-04T06:10:32;2.17;;;1.10;;
846;SDS011;410;48.954;9.474;2024-02-04T06:12:35;2.93;;;1.30;;
846;SDS011;410;48.954;9.474;2024-02-04T06:14:39;2.50;;;0.93;;
846;SDS011;410;48.954;9.474;2024-02-04T06:16:43;1.90;;;1.13;;
846;SDS011;410;48.954;9.474;2024-02-04T06:18:47;1.63;;;0.90;;
846;SDS011;410;48.954;9.474;2024-02-04T06:20:50;1.83;;;0.80;;
846;SDS011;410;48.954;9.474;2024-02-04T06:22:53;3.40;;;0.80;;
846;SDS011;410;48.954;9.474;2024-02-04T06:24:57;1.80;;;0.90;;
846;SDS011;410;48.954;9.474;2024-02-04T06:27:00;1.70;;;1.00;;
846;SDS011;410;48.954;9.474;2024-02-04T06:29:02;1.83;;;0.90;;
846;SDS011;410;48.954;9.474;2024-02-04T06:31:08;2.17;;;1.00;;
846;SDS011;410;48.954;9.474;2024-02-04T06:33:13;2.50;;;1.10;;
846;SDS011;410;48.954;9.474;2024-02-04T06:35:16;1.80;;;1.07;;
846;SDS011;410;48.954;9.474;2024-02-04T06:37:20;1.70;;;0.90;;
846;SDS011;410;48.954;9.474;2024-02-04T06:39:23;1.60;;;0.90;;
846;SDS011;410;48.954;9.474;2024-02-04T06:41:26;1.60;;;0.90;;
846;SDS011;410;48.954;9.474;2024-02-04T06:43:29;1.50;;;0.70;;
846;SDS011;410;48.954;9.474;2024-02-04T06:45:37;1.70;;;0.97;;
846;SDS011;410;48.954;9.474;2024-02-04T06:47:42;1.83;;;0.87;;
846;SDS011;410;48.954;9.474;2024-02-04T06:49:47;1.53;;;0.90;;
846;SDS011;410;48.954;9.474;2024-02-04T06:51:51;1.47;;;0.83;;
846;SDS011;410;48.954;9.474;2024-02-04T06:53:58;2.10;;;0.80;;
846;SDS011;410;48.954;9.474;2024-02-04T06:56:02;2.03;;;0.90;;
846;SDS011;410;48.954;9.474;2024-02-04T06:58:07;1.30;;;0.60;;
846;SDS011;410;48.954;9.474;2024-02-04T07:00:11;1.60;;;0.70;;
846;SDS011;410;48.954;9.474;2024-02-04T07:02:15;1.60;;;0.80;;
846;SDS011;410;48.954;9.474;2024-02-04T07:04:18;1.70;;;0.90;;
846;SDS011;410;48.954;9.474;2024-02-04T07:06:24;1.33;;;0.80;;
846;SDS011;410;48.954;9.474;2024-02-04T07:08:28;1.70;;;0.80;;
846;SDS011;410;48.954;9.474;2024-02-04T07:10:31;8.50;;;1.27;;
846;SDS011;410;48.954;9.474;2024-02-04T07:12:35;1.30;;;0.70;;
846;SDS011;410;48.954;9.474;2024-02-04T07:14:38;2.53;;;0.90;;
846;SDS011;410;48.954;9.474;2024-02-04T07:16:41;1.80;;;0.77;;
846;SDS011;410;48.954;9.474;2024-02-04T07:18:45;1.80;;;0.90;;
846;SDS011;410;48.954;9.474;2024-02-04T07:20:48;1.43;;;0.80;;
846;SDS011;410;48.954;9.474;2024-02-04T07:22:53;1.70;;;0.80;;
846;SDS011;410;48.954;9.474;2024-02-04T07:24:56;1.50;;;0.80;;
846;SDS011;410;48.954;9.474;2024-02-04T07:26:58;1.70;;;0.90;;
846;SDS011;410;48.954;9.474;2024-02-04T07:29:02;1.30;;;0.70;;
846;SDS011;410;48.954;9.474;2024-02-04T07:31:05;1.30;;;0.75;;
846;SDS011;410;48.954;9.474;2024-02-04T07:33:09;1.60;;;0.80;;
846;SDS011;410;48.954;9.474;2024-02-04T07:35:12;2.90;;;0.87;;
846;SDS011;410;48.954;9.474;2024-02-04T07:37:16;1.57;;;0.80;;
846;SDS011;410;48.954;9.474;2024-02-04T07:39:21;1.80;;;1.27;;
846;SDS011;410;48.954;9.474;2024-02-04T07:41:25;1.43;;;0.87;;
846;SDS011;410;48.954;9.474;2024-02-04T07:43:29;1.90;;;1.00;;
846;SDS011;410;48.954;9.474;2024-02-04T07:45:31;1.50;;;0.90;;
846;SDS011;410;48.954;9.474;2024-02-04T07:47:35;1.50;;;1.00;;
846;SDS011;410;48.954;9.474;2024-02-04T07:49:37;2.30;;;1.40;;
846;SDS011;410;48.954;9.474;2024-02-04T07:51:41;2.10;;;1.20;;
846;SDS011;410;48.954;9.474;2024-02-04T07:53:44;1.90;;;1.40;;
846;SDS011;410;48.954;9.474;2024-02-04T07:55:48;1.70;;;0.90;;
846;SDS011;410;48.954;9.474;2024-02-04T07:57:52;2.17;;;1.00;;
846;SDS011;410;48.954;9.474;2024-02-04T07:59:56;2.80;;;1.50;;
846;SDS011;410;48.954;9.474;2024-02-04T08:02:02;2.42;;;1.15;;
846;SDS011;410;48.954;9.474;2024-02-04T08:04:06;1.60;;;0.90;;
846;SDS011;410;48.954;9.474;2024-02-04T08:06:12;2.20;;;1.30;;
846;SDS011;410;48.954;9.474;2024-02-04T08:08:15;2.75;;;0.90;;
846;SDS011;410;48.954;9.474;2024-02-04T08:10:18;1.80;;;1.20;;
846;SDS011;410;48.954;9.474;2024-02-04T08:12:23;2.30;;;0.90;;
846;SDS011;410;48.954;9.474;2024-02-04T08:14:26;1.93;;;0.87;;
846;SDS011;410;48.954;9.474;2024-02-04T08:16:29;1.90;;;1.10;;
846;SDS011;410;48.954;9.474;2024-02-04T08:18:33;1.67;;;0.97;;
846;SDS011;410;48.954;9.474;2024-02-04T08:20:36;1.80;;;0.80;;
846;SDS011;410;48.954;9.474;2024-02-04T08:22:39;2.10;;;1.20;;
846;SDS011;410;48.954;9.474;2024-02-04T08:24:43;2.70;;;1.20;;
846;SDS011;410;48.954;9.474;2024-02-04T08:26:46;1.70;;;1.00;;
846;SDS011;410;48.954;9.474;2024-02-04T08:28:51;1.97;;;0.90;;
846;SDS011;410;48.954;9.474;2024-02-04T08:30:55;1.63;;;0.97;;
846;SDS011;410;48.954;9.474;2024-02-04T08:32:58;1.67;;;0.93;;
846;SDS011;410;48.954;9.474;2024-02-04T08:35:02;1.60;;;0.80;;
846;SDS011;410;48.954;9.474;2024-02-04T08:37:05;2.17;;;1.00;;
846;SDS011;410;48.954;9.474;2024-02-04T08:39:09;1.90;;;1.00;;
846;SDS011;410;48.954;9.474;2024-02-04T08:41:13;1.88;;;1.05;;
846;SDS011;410;48.954;9.474;2024-02-04T08:43:16;2.33;;;1.27;;
846;SDS011;410;48.954;9.474;2024-02-04T08:45:21;1.83;;;1.00;;
846;SDS011;410;48.954;9.474;2024-02-04T08:47:25;1.70;;;1.13;;
846;SDS011;410;48.954;9.474;2024-02-04T08:49:28;1.80;;;0.93;;
846;SDS011;410;48.954;9.474;2024-02-04T08:51:32;1.45;;;0.80;;
846;SDS011;410;48.954;9.474;2024-02-04T08:53:34;1.53;;;1.00;;
846;SDS011;410;48.954;9.474;2024-02-04T08:55:38;1.63;;;0.80;;
846;SDS011;410;48.954;9.474;2024-02-04T08:57:41;1.90;;;0.93;;
846;SDS011;410;48.954;9.474;2024-02-04T08:59:44;1.70;;;1.00;;
846;SDS011;410;48.954;9.474;2024-02-04T09:01:49;2.42;;;1.30;;
846;SDS011;410;48.954;9.474;2024-02-04T09:03:51;2.05;;;0.98;;
846;SDS011;410;48.954;9.474;2024-02-04T09:05:55;1.70;;;0.90;;
846;SDS011;410;48.954;9.474;2024-02-04T09:07:58;2.05;;;1.00;;
846;SDS011;410;48.954;9.474;2024-02-04T09:10:03;2.10;;;0.80;;
846;SDS011;410;48.954;9.474;2024-02-04T09:12:07;1.70;;;1.07;;
846;SDS011;410;48.954;9.474;2024-02-04T09:14:11;2.45;;;1.25;;
846;SDS011;410;48.954;9.474;2024-02-04T09:16:14;3.30;;;1.20;;
846;SDS011;410;48.954;9.474;2024-02-04T09:18:22;1.90;;;1.33;;
846;SDS011;410;48.954;9.474;2024-02-04T09:20:26;2.80;;;1.50;;
846;SDS011;410;48.954;9.474;2024-02-04T09:22:29;2.10;;;1.63;;
846;SDS011;410;48.954;9.474;2024-02-04T09:24:33;2.90;;;2.00;;
846;SDS011;410;48.954;9.474;2024-02-04T09:26:36;1.83;;;0.83;;
846;SDS011;410;48.954;9.474;2024-02-04T09:28:40;1.80;;;0.87;;
846;SDS011;410;48.954;9.474;2024-02-04T09:30:43;1.40;;;0.70;;
846;SDS011;410;48.954;9.474;2024-02-04T09:32:47;1.73;;;0.90;;
846;SDS011;410;48.954;9.474;2024-02-04T09:34:51;1.47;;;0.60;;
846;SDS011;410;48.954;9.474;2024-02-04T09:36:54;1.65;;;0.90;;
846;SDS011;410;48.954;9.474;2024-02-04T09:38:58;1.30;;;0.60;;
846;SDS011;410;48.954;9.474;2024-02-04T09:41:02;3.13;;;0.60;;
846;SDS011;410;48.954;9.474;2024-02-04T09:43:06;2.20;;;0.70;;
846;SDS011;410;48.954;9.474;2024-02-04T09:45:10;1.50;;;0.60;;
846;SDS011;410;48.954;9.474;2024-02-04T09:47:15;1.20;;;0.43;;
846;SDS011;410;48.954;9.474;2024-02-04T09:49:19;2.03;;;0.53;;
846;SDS011;410;48.954;9.474;2024-02-04T09:51:25;1.30;;;0.50;;
846;SDS011;410;48.954;9.474;2024-02-04T09:53:32;1.10;;;0.40;;
846;SDS011;410;48.954;9.474;2024-02-04T09:55:37;1.30;;;0.50;;
846;SDS011;410;48.954;9.474;2024-02-04T09:57:40;1.30;;;0.33;;
846;SDS011;410;48.954;9.474;2024-02-04T09:59:44;1.10;;;0.50;;
846;SDS011;410;48.954;9.474;2024-02-04T10:01:49;1.10;;;0.40;;
846;SDS011;410;48.954;9.474;2024-02-04T10:03:53;1.20;;;0.53;;
846;SDS011;410;48.954;9.474;2024-02-04T10:05:56;2.53;;;1.73;;
846;SDS011;410;48.954;9.474;2024-02-04T10:08:02;8.07;;;4.70;;
846;SDS011;410;48.954;9.474;2024-02-04T10:10:07;5.50;;;2.10;;
846;SDS011;410;48.954;9.474;2024-02-04T10:12:11;2.83;;;1.40;;
846;SDS011;410;48.954;9.474;2024-02-04T10:14:15;2.20;;;1.30;;
846;SDS011;410;48.954;9.474;2024-02-04T10:16:20;2.40;;;1.27;;
846;SDS011;410;48.954;9.474;2024-02-04T10:18:23;2.37;;;1.17;;
846;SDS011;410;48.954;9.474;2024-02-04T10:20:28;1.90;;;0.90;;
846;SDS011;410;48.954;9.474;2024-02-04T10:22:30;2.37;;;1.20;;
846;SDS011;410;48.954;9.474;2024-02-04T10:24:35;3.03;;;1.30;;
846;SDS011;410;48.954;9.474;2024-02-04T10:26:38;2.50;;;1.03;;
846;SDS011;410;48.954;9.474;2024-02-04T10:28:45;1.80;;;1.07;;
846;SDS011;410;48.954;9.474;2024-02-04T10:30:50;4.03;;;2.40;;
846;SDS011;410;48.954;9.474;2024-02-04T10:32:53;2.23;;;1.20;;
846;SDS011;410;48.954;9.474;2024-02-04T10:34:57;1.50;;;0.90;;
846;SDS011;410;48.954;9.474;2024-02-04T10:37:00;1.60;;;0.83;;
846;SDS011;410;48.954;9.474;2024-02-04T10:39:03;2.90;;;1.10;;
846;SDS011;410;48.954;9.474;2024-02-04T10:41:10;2.97;;;1.90;;
846;SDS011;410;48.954;9.474;2024-02-04T10:43:16;2.73;;;1.00;;
846;SDS011;410;48.954;9.474;2024-02-04T10:45:20;1.83;;;1.20;;
846;SDS011;410;48.954;9.474;2024-02-04T10:47:30;2.13;;;0.80;;
846;SDS011;410;48.954;9.474;2024-02-04T10:49:35;1.20;;;0.50;;
846;SDS011;410;48.954;9.474;2024-02-04T10:51:42;1.27;;;0.50;;
846;SDS011;410;48.954;9.474;2024-02-04T10:53:46;1.30;;;0.60;;
846;SDS011;410;48.954;9.474;2024-02-04T10:55:51;1.30;;;0.50;;
846;SDS011;410;48.954;9.474;2024-02-04T10:57:58;1.30;;;0.40;;
846;SDS011;410;48.954;9.474;2024-02-04T11:00:02;1.50;;;0.63;;
846;SDS011;410;48.954;9.474;2024-02-04T11:02:10;1.30;;;0.50;;
846;SDS011;410;48.954;9.474;2024-02-04T11:04:14;1.30;;;0.60;;
846;SDS011;410;48.954;9.474;2024-02-04T11:06:22;1.50;;;0.50;;
846;SDS011;410;48.954;9.474;2024-02-04T11:08:26;1.70;;;0.57;;
846;SDS011;410;48.954;9.474;2024-02-04T11:10:30;1.60;;;0.70;;
846;SDS011;410;48.954;9.474;2024-02-04T11:12:34;1.20;;;0.50;;
846;SDS011;410;48.954;9.474;2024-02-04T11:14:41;1.50;;;0.50;;
846;SDS011;410;48.954;9.474;2024-02-04T11:17:00;1.37;;;0.50;;
846;SDS011;410;48.954;9.474;2024-02-04T11:19:17;1.30;;;0.50;;
846;SDS011;410;48.954;9.474;2024-02-04T11:21:32;2.27;;;0.57;;
846;SDS011;410;48.954;9.474;2024-02-04T11:23:46;1.60;;;0.60;;
846;SDS011;410;48.954;9.474;2024-02-04T11:25:54;1.20;;;0.40;;
846;SDS011;410;48.954;9.474;2024-02-04T11:28:00;1.70;;;0.63;;
846;SDS011;410;48.954;9.474;2024-02-04T11:30:05;2.80;;;0.60;;
846;SDS011;410;48.954;9.474;2024-02-04T11:32:09;1.63;;;0.60;;
846;SDS011;410;48.954;9.474;2024-02-04T11:34:14;1.70;;;0.80;;
846;SDS011;410;48.954;9.474;2024-02-04T11:36:18;1.97;;;1.10;;
846;SDS011;410;48.954;9.474;2024-02-04T11:38:21;1.53;;;0.70;;
846;SDS011;410;48.954;9.474;2024-02-04T11:40:29;1.47;;;0.70;;
846;SDS011;410;48.954;9.474;2024-02-04T11:42:34;1.40;;;0.60;;
846;SDS011;410;48.954;9.474;2024-02-04T11:44:37;1.30;;;0.60;;
846;SDS011;410;48.954;9.474;2024-02-04T11:46:46;1.60;;;0.50;;
846;SDS011;410;48.954;9.474;2024-02-04T11:48:53;1.93;;;0.70;;
846;SDS011;410;48.954;9.474;2024-02-04T11:50:57;2.20;;;1.10;;
846;SDS011;410;48.954;9.474;2024-02-04T11:53:04;1.30;;;0.40;;
846;SDS011;410;48.954;9.474;2024-02-04T11:55:12;2.30;;;0.70;;
846;SDS011;410;48.954;9.474;2024-02-04T11:57:17;1.73;;;0.83;;
846;SDS011;410;48.954;9.474;2024-02-04T11:59:22;1.43;;;0.60;;
846;SDS011;410;48.954;9.474;2024-02-04T12:01:26;1.70;;;0.80;;
846;SDS011;410;48.954;9.474;2024-02-04T12:03:32;1.43;;;0.53;;
846;SDS011;410;48.954;9.474;2024-02-04T12:05:38;1.30;;;0.60;;
846;SDS011;410;48.954;9.474;2024-02-04T12:07:41;1.40;;;0.60;;
846;SDS011;410;48.954;9.474;2024-02-04T12:09:45;1.30;;;0.50;;
846;SDS011;410;48.954;9.474;2024-02-04T12:11:49;1.27;;;0.50;;
846;SDS011;410;48.954;9.474;2024-02-04T12:13:53;1.50;;;0.47;;
846;SDS011;410;48.954;9.474;2024-02-04T12:15:57;1.60;;;0.60;;
846;SDS011;410;48.954;9.474;2024-02-04T12:18:06;1.40;;;0.50;;
846;SDS011;410;48.954;9.474;2024-02-04T12:20:12;1.60;;;0.70;;
846;SDS011;410;48.954;9.474;2024-02-04T12:22:15;1.80;;;0.70;;
846;SDS011;410;48.954;9.474;2024-02-04T12:24:18;1.40;;;0.60;;
846;SDS011;410;48.954;9.474;2024-02-04T12:26:22;1.50;;;0.60;;
846;SDS011;410;48.954;9.474;2024-02-04T12:28:25;1.30;;;0.40;;
846;SDS011;410;48.954;9.474;2024-02-04T12:30:29;1.40;;;0.60;;
846;SDS011;410;48.954;9.474;2024-02-04T12:32:33;1.50;;;0.70;;
846;SDS011;410;48.954;9.474;2024-02-04T12:34:36;1.77;;;0.80;;
846;SDS011;410;48.954;9.474;2024-02-04T12:36:44;4.33;;;1.00;;
846;SDS011;410;48.954;9.474;2024-02-04T12:38:54;1.93;;;0.70;;
846;SDS011;410;48.954;9.474;2024-02-04T12:41:01;1.83;;;0.70;;
846;SDS011;410;48.954;9.474;2024-02-04T12:43:04;2.87;;;1.10;;
846;SDS011;410;48.954;9.474;2024-02-04T12:45:08;2.07;;;0.70;;
846;SDS011;410;48.954;9.474;2024-02-04T12:47:12;2.10;;;1.40;;
846;SDS011;410;48.954;9.474;2024-02-04T12:49:18;1.77;;;0.77;;
846;SDS011;410;48.954;9.474;2024-02-04T12:51:24;2.20;;;1.30;;
846;SDS011;410;48.954;9.474;2024-02-04T12:53:29;1.50;;;0.70;;
846;SDS011;410;48.954;9.474;2024-02-04T12:55:33;1.63;;;0.70;;
846;SDS011;410;48.954;9.474;2024-02-04T12:57:38;1.80;;;0.90;;
846;SDS011;410;48.954;9.474;2024-02-04T12:59:41;1.93;;;0.60;;
846;SDS011;410;48.954;9.474;2024-02-04T13:01:44;1.60;;;0.70;;
846;SDS011;410;48.954;9.474;2024-02-04T13:03:48;2.43;;;0.80;;
846;SDS011;410;48.954;9.474;2024-02-04T13:05:56;1.70;;;0.90;;
846;SDS011;410;48.954;9.474;2024-02-04T13:08:00;1.20;;;0.40;;
846;SDS011;410;48.954;9.474;2024-02-04T13:10:06;1.77;;;0.70;;
846;SDS011;410;48.954;9.474;2024-02-04T13:12:10;1.90;;;0.63;;
846;SDS011;410;48.954;9.474;2024-02-04T13:14:14;1.30;;;0.57;;
846;SDS011;410;48.954;9.474;2024-02-04T13:16:16;1.30;;;0.50;;
846;SDS011;410;48.954;9.474;2024-02-04T13:18:21;1.40;;;0.60;;